• Join FlightAware (Why Join?)
  • Login
  • US Flag 
12:39AM EDT


 

Airport Tracker/Info


-or-


 

Live Flight TrackerFlight Track Log ✈ SWA1255 ✈ 14-Jul-2013 ✈ KMDW - KMCI

Flight Track Log - Related Links

Times and Time Zones

All times are in EDT time to prevent confusion due to time zone crossing. See the SWA1255 flight status page for this flight to view local times or setup timezone preferences in your user account.

Time Position Orientation Groundspeed Altitude Reporting Facility
EDT Latitude Longitude Course Direction KTS MPH feet Rate Location/Type
08:34AM 41.8167 -87.7500 282° West 196 226 2,300  Level Chicago TRACON
08:35AM 41.8089 -87.8150 261° West 209 241 3,200 900 Climbing Chicago Center
08:36AM 41.7850 -87.8975 249° West 225 259 4,000 1,380 Climbing Chicago Center
08:37AM 41.7603 -87.9944 251° West 266 306 6,100 2,580 Climbing Chicago Center
08:38AM 41.7367 -88.0936 252° West 282 325 9,400 2,820 Climbing Chicago Center
08:39AM 41.8858 -88.3910 282° West  Level FlightAware Approximate
08:39AM 41.7361 -88.2044 270° West 315 362 11,900  Level Chicago Center
08:40AM 41.7503 -88.3231 279° West 323 372 13,500 2,460 Climbing Chicago Center
08:41AM 41.7694 -88.4828 279° West 363 418 17,000 2,640 Climbing Chicago Center
08:42AM 41.7744 -88.6250 273° West 390 449 18,900 1,920 Climbing Chicago Center
08:43AM 41.7408 -88.7733 253° West 418 481 21,000 1,860 Climbing Chicago Center
08:44AM 41.7061 -88.9272 253° West 432 497 22,800 1,740 Climbing Chicago Center
08:45AM 41.6611 -89.0867 249° West 459 528 24,600 1,620 Climbing Chicago Center
08:46AM 41.6003 -89.2394 242° Southwest 467 537 26,200 1,860 Climbing Chicago Center
08:47AM 41.5311 -89.4161 242° Southwest 478 550 28,400 2,040 Climbing Chicago Center
08:48AM 41.4686 -89.5744 242° Southwest 483 556 30,400 2,040 Climbing Chicago Center
08:49AM 41.4069 -89.7328 243° Southwest 484 557 32,600 2,040 Climbing Chicago Center
08:50AM 41.3450 -89.8872 242° Southwest 478 550 34,700 1,620 Climbing Chicago Center
08:51AM 41.2839 -90.0392 242° Southwest 473 544 36,000 600 Climbing Chicago Center
08:52AM 41.2111 -90.2219 242° Southwest 470 541 36,000  Level Chicago Center
08:53AM 41.1478 -90.3756 241° Southwest 477 549 36,000  Level Chicago Center
08:54AM 41.0864 -90.5258 242° Southwest 468 539 36,000  Level Chicago Center
08:55AM 41.0239 -90.6783 242° Southwest 472 543 36,000  Level Chicago Center
08:56AM 40.9614 -90.8297 241° Southwest 471 542 36,000  Level Chicago Center
08:57AM 40.8969 -90.9806 241° Southwest 472 543 36,000  Level Chicago Center
08:58AM 40.8344 -91.1328 242° Southwest 473 544 36,000  Level Chicago Center
08:59AM 40.7597 -91.3083 241° Southwest 473 544 36,000  Level Chicago Center
09:00AM 40.6975 -91.4558 241° Southwest 467 537 36,000  Level Chicago Center
09:01AM 40.6344 -91.6042 241° Southwest 466 536 36,000  Level Chicago Center
09:02AM 40.5839 -91.7219 241° Southwest 466 536 36,000  Level Kansas City Center
09:03AM 40.5203 -91.8683 240° Southwest 464 534 36,000  Level Kansas City Center
09:04AM 40.4575 -92.0147 241° Southwest 463 533 36,000  Level Kansas City Center
09:05AM 40.3942 -92.1617 241° Southwest 464 534 36,000  Level Kansas City Center
09:06AM 40.3306 -92.3086 240° Southwest 464 534 36,000  Level Kansas City Center
09:07AM 40.2650 -92.4531 239° Southwest 464 534 36,000 -420 Level Kansas City Center
09:08AM 40.1933 -92.6181 240° Southwest 465 535 35,200 -1,860 Descending Kansas City Center
09:09AM 40.1314 -92.7608 240° Southwest 468 539 32,300 -3,120 Descending Kansas City Center
09:10AM 40.0569 -92.9281 240° Southwest 475 547 29,000 -2,820 Descending Kansas City Center
09:11AM 40.0011 -93.0542 240° Southwest 472 543 26,700 -2,340 Descending Kansas City Center
09:12AM 39.9386 -93.1997 241° Southwest 464 534 24,200 -2,760 Descending Kansas City Center
09:13AM 39.8603 -93.3639 238° Southwest 451 519 21,000 -3,000 Descending Kansas City Center
09:14AM 39.8011 -93.4997 240° Southwest 441 507 18,200 -2,640 Descending Kansas City Center
09:15AM 39.7411 -93.6333 240° Southwest 434 499 15,700 -2,280 Descending Kansas City Center
09:16AM 39.6794 -93.7639 238° Southwest 409 471 13,500 -1,860 Descending Kansas City Center
09:17AM 39.6314 -93.8797 242° Southwest 380 437 11,900 -1,320 Descending Kansas City Center
09:18AM 39.5936 -94.0114 250° West 344 396 10,900 -1,080 Descending Kansas City Center
09:19AM 39.5628 -94.1106 248° West 311 358 9,800 -1,320 Descending Kansas City Center
09:20AM 39.5331 -94.2081 248° West 304 350 8,300 -1,560 Descending Kansas City Center
09:21AM 39.4983 -94.3183 248° West 296 341 6,700 -1,440 Descending Kansas City Center
09:22AM 39.4703 -94.4094 248° West 286 329 5,500 -960 Descending Kansas City Center
09:23AM 39.4433 -94.4950 248° West 270 311 4,800 -780 Descending Kansas City Center
09:24AM 39.4164 -94.5800 248° West 228 262 4,000 -840 Descending Kansas City Center
09:25AM 39.3961 -94.6386 246° West 190 219 3,200 -960 Descending Kansas City Center
09:26AM 39.3706 -94.6833 234° Southwest 140 161 2,100 -720 Descending Kansas City Center
09:27AM 39.3406 -94.6917 192° South 114 131 1,700 -600 Descending Kansas City Center
09:28AM 39.3064 -94.7014 192° South 128 147 1,000 -720 Descending Kansas City Center